createdAt,value
2023-02-02T00:00:03.025Z,19.60
2023-02-02T00:01:17.059Z,15.77
2023-02-02T00:02:20.489Z,13.98
2023-02-02T00:03:23.267Z,20.27
2023-02-02T00:04:27.449Z,13.85
2023-02-02T00:05:29.939Z,17.75
2023-02-02T00:06:47.048Z,23.90
2023-02-02T00:07:56.357Z,20.15
2023-02-02T00:09:00.261Z,23.10
2023-02-02T00:10:09.067Z,33.63
2023-02-02T00:11:13.102Z,21.70
2023-02-02T00:12:15.638Z,21.15
2023-02-02T00:13:19.552Z,23.20
2023-02-02T00:14:22.393Z,19.00
2023-02-02T00:15:33.031Z,17.02
2023-02-02T00:16:45.049Z,31.33
2023-02-02T00:17:48.534Z,28.90
2023-02-02T00:18:51.023Z,30.75
2023-02-02T00:19:54.515Z,30.73
2023-02-02T00:20:57.024Z,43.05
2023-02-02T00:22:07.027Z,30.88
2023-02-02T00:23:09.742Z,23.23
2023-02-02T00:24:13.840Z,19.33
2023-02-02T00:25:16.412Z,35.58
2023-02-02T00:26:20.265Z,30.35
2023-02-02T00:27:30.031Z,35.80
2023-02-02T00:28:32.570Z,34.45
2023-02-02T00:29:36.108Z,28.33
2023-02-02T00:30:38.694Z,36.35
2023-02-02T00:31:43.622Z,31.00
2023-02-02T00:32:55.028Z,46.45
2023-02-02T00:33:57.574Z,27.40
2023-02-02T00:35:01.000Z,39.40
2023-02-02T00:36:03.563Z,46.13
2023-02-02T00:37:14.060Z,36.28
2023-02-02T00:38:16.561Z,45.03
2023-02-02T00:39:28.075Z,34.25
2023-02-02T00:40:30.563Z,30.20
2023-02-02T00:41:34.059Z,40.55
2023-02-02T00:42:36.571Z,30.08
2023-02-02T00:43:40.081Z,37.13
2023-02-02T00:45:07.066Z,39.72
2023-02-02T00:46:10.997Z,38.08
2023-02-02T00:47:16.845Z,28.88
2023-02-02T00:48:19.363Z,50.47
2023-02-02T00:49:23.001Z,35.03
2023-02-02T00:50:32.039Z,27.30
2023-02-02T00:51:36.627Z,41.67
2023-02-02T00:52:46.031Z,28.52
2023-02-02T00:53:49.463Z,46.42
2023-02-02T00:54:52.138Z,30.38
2023-02-02T00:55:55.546Z,35.65
2023-02-02T00:57:05.030Z,38.90
2023-02-02T00:58:08.534Z,39.28
2023-02-02T00:59:11.053Z,28.23
2023-02-02T01:00:15.839Z,47.40
2023-02-02T01:01:18.492Z,39.88
2023-02-02T01:02:30.077Z,44.78
2023-02-02T01:03:32.695Z,29.48
2023-02-02T01:04:36.175Z,35.42
2023-02-02T01:05:40.540Z,29.75
2023-02-02T01:06:50.027Z,29.48
2023-02-02T01:08:07.082Z,30.33
2023-02-02T01:09:16.311Z,23.92
2023-02-02T01:10:20.242Z,38.05
2023-02-02T01:11:22.814Z,32.15
2023-02-02T01:12:40.127Z,20.35
2023-02-02T01:13:56.053Z,30.38
2023-02-02T01:14:59.944Z,33.25
2023-02-02T01:16:03.369Z,42.33
2023-02-02T01:17:06.975Z,32.42
2023-02-02T01:18:10.878Z,24.35
2023-02-02T01:19:21.033Z,30.88
2023-02-02T01:20:24.269Z,35.17
2023-02-02T01:21:27.711Z,22.30
2023-02-02T01:22:30.241Z,29.30
2023-02-02T01:23:34.278Z,29.15
2023-02-02T01:24:43.062Z,35.38
2023-02-02T01:25:47.488Z,19.75
2023-02-02T01:26:50.136Z,25.27
2023-02-02T01:27:53.648Z,32.80
2023-02-02T01:29:03.056Z,28.83
2023-02-02T01:30:06.785Z,29.33
2023-02-02T01:31:21.127Z,23.15
2023-02-02T01:32:24.664Z,26.67
2023-02-02T01:33:28.464Z,27.70
2023-02-02T01:34:31.973Z,34.47
2023-02-02T01:35:34.506Z,26.35
2023-02-02T01:36:44.062Z,23.83
2023-02-02T01:37:46.648Z,34.90
2023-02-02T01:38:50.525Z,28.60
2023-02-02T01:40:00.061Z,24.65
2023-02-02T01:41:05.187Z,24.48
2023-02-02T01:42:19.044Z,28.45
2023-02-02T01:43:33.049Z,31.00
2023-02-02T01:44:54.142Z,26.10
2023-02-02T01:45:58.407Z,24.45
2023-02-02T01:47:00.958Z,26.98
2023-02-02T01:48:04.380Z,21.65
2023-02-02T01:49:16.060Z,28.40
2023-02-02T01:50:19.886Z,23.02
2023-02-02T01:51:23.737Z,18.15
2023-02-02T01:52:36.059Z,26.95
2023-02-02T01:53:38.878Z,16.42
2023-02-02T01:54:43.799Z,18.13
2023-02-02T01:55:48.171Z,19.58
2023-02-02T01:56:54.163Z,22.23
2023-02-02T01:58:05.050Z,24.98
2023-02-02T01:59:08.985Z,23.35
2023-02-02T02:00:13.116Z,23.38
2023-02-02T02:01:16.721Z,24.15
2023-02-02T02:02:19.528Z,29.02
2023-02-02T02:03:31.054Z,19.27
2023-02-02T02:04:35.904Z,21.15
2023-02-02T02:05:50.066Z,17.92
2023-02-02T02:06:53.951Z,23.42
2023-02-02T02:08:01.657Z,20.33
2023-02-02T02:09:12.060Z,25.02
2023-02-02T02:10:14.594Z,28.00
2023-02-02T02:11:24.037Z,26.55
2023-02-02T02:12:34.167Z,18.83
2023-02-02T02:14:08.084Z,18.05
2023-02-02T02:15:29.788Z,21.30
2023-02-02T02:16:37.948Z,15.98
2023-02-02T02:17:47.925Z,23.40
2023-02-02T02:18:53.390Z,23.15
2023-02-02T02:20:38.055Z,23.98
2023-02-02T02:22:10.460Z,25.65
2023-02-02T02:23:49.301Z,19.52
2023-02-02T02:25:28.430Z,21.98
2023-02-02T02:26:45.214Z,29.80
2023-02-02T02:28:14.634Z,16.38
2023-02-02T02:29:37.186Z,35.65
2023-02-02T02:30:53.139Z,27.10
2023-02-02T02:32:04.619Z,22.55
2023-02-02T02:33:08.297Z,26.75
2023-02-02T02:34:15.412Z,20.73
2023-02-02T02:35:31.119Z,27.80
2023-02-02T02:36:38.221Z,23.55
2023-02-02T02:37:45.223Z,23.70
2023-02-02T02:38:52.610Z,19.70
2023-02-02T02:39:56.746Z,25.75
2023-02-02T02:41:11.093Z,24.42
2023-02-02T02:42:15.178Z,30.63
2023-02-02T02:43:22.266Z,32.80
2023-02-02T02:44:25.522Z,26.40
2023-02-02T02:45:30.130Z,21.90
2023-02-02T02:46:39.089Z,20.80
2023-02-02T02:47:45.543Z,23.33
2023-02-02T02:48:48.016Z,29.55
2023-02-02T02:49:58.266Z,25.58
2023-02-02T02:51:07.562Z,22.25
2023-02-02T02:52:18.044Z,28.70
2023-02-02T02:53:21.788Z,26.50
2023-02-02T02:54:27.460Z,27.17
2023-02-02T02:55:31.998Z,22.48
2023-02-02T02:56:36.955Z,20.83
2023-02-02T02:58:06.089Z,20.48
2023-02-02T02:59:12.165Z,28.45
2023-02-02T03:00:25.220Z,19.63
2023-02-02T03:01:30.766Z,28.33
2023-02-02T03:02:45.103Z,30.50
2023-02-02T03:03:55.919Z,22.35
2023-02-02T03:05:03.452Z,28.40
2023-02-02T03:06:10.166Z,28.95
2023-02-02T03:07:24.111Z,25.20
2023-02-02T03:08:30.923Z,26.58
2023-02-02T03:09:35.075Z,26.80
2023-02-02T03:10:40.254Z,29.20
2023-02-02T03:11:43.017Z,18.77
2023-02-02T03:12:54.063Z,31.33
2023-02-02T03:14:04.219Z,17.63
2023-02-02T03:15:13.770Z,27.60
2023-02-02T03:16:18.464Z,28.27
2023-02-02T03:17:21.019Z,30.30
2023-02-02T03:18:34.043Z,23.05
2023-02-02T03:19:37.887Z,21.55
2023-02-02T03:20:41.393Z,18.98
2023-02-02T03:21:43.857Z,23.27
2023-02-02T03:22:47.289Z,24.90
2023-02-02T03:23:57.057Z,26.00
2023-02-02T03:25:06.074Z,22.48
2023-02-02T03:26:09.539Z,19.20
2023-02-02T03:27:12.246Z,18.98
2023-02-02T03:28:16.234Z,22.77
2023-02-02T03:29:18.904Z,22.10
2023-02-02T03:30:30.056Z,26.58
2023-02-02T03:31:32.734Z,18.10
2023-02-02T03:32:36.470Z,24.60
2023-02-02T03:33:40.095Z,15.85
2023-02-02T03:34:43.899Z,28.55
2023-02-02T03:35:54.087Z,15.35
2023-02-02T03:36:56.631Z,17.00
2023-02-02T03:38:00.090Z,10.93
2023-02-02T03:39:02.595Z,19.85
2023-02-02T03:40:06.476Z,20.48
2023-02-02T03:41:15.181Z,25.08
2023-02-02T03:42:18.700Z,25.23
2023-02-02T03:43:21.808Z,22.17
2023-02-02T03:44:25.270Z,20.67
2023-02-02T03:45:28.779Z,19.77
2023-02-02T03:46:39.115Z,22.23
2023-02-02T03:47:41.645Z,15.05
2023-02-02T03:48:45.058Z,18.05
2023-02-02T03:49:48.913Z,15.60
2023-02-02T03:50:52.351Z,17.42
2023-02-02T03:52:01.064Z,20.77
2023-02-02T03:53:05.074Z,17.33
2023-02-02T03:54:14.086Z,18.10
2023-02-02T03:55:17.568Z,31.95
2023-02-02T03:56:20.065Z,17.20
2023-02-02T03:57:23.529Z,24.98
2023-02-02T03:58:26.018Z,22.80
2023-02-02T03:59:36.078Z,24.30
2023-02-02T04:00:38.639Z,16.77
2023-02-02T04:01:42.148Z,19.35
2023-02-02T04:02:51.134Z,15.05
2023-02-02T04:03:54.640Z,24.10
2023-02-02T04:04:58.438Z,20.45
2023-02-02T04:06:02.139Z,28.70
2023-02-02T04:07:04.641Z,21.17
2023-02-02T04:08:15.078Z,16.85
2023-02-02T04:09:17.538Z,23.00
2023-02-02T04:10:21.139Z,12.40
2023-02-02T04:11:23.657Z,23.38
2023-02-02T04:12:34.108Z,21.48
2023-02-02T04:13:43.543Z,17.58
2023-02-02T04:15:00.040Z,14.20
2023-02-02T04:16:03.824Z,19.08
2023-02-02T04:17:06.316Z,16.65
2023-02-02T04:18:16.089Z,17.48
2023-02-02T04:19:18.713Z,18.40
2023-02-02T04:20:23.536Z,18.88
2023-02-02T04:21:32.038Z,17.17
2023-02-02T04:22:35.630Z,22.05
2023-02-02T04:23:38.442Z,10.70
2023-02-02T04:24:41.849Z,22.30
2023-02-02T04:25:56.139Z,19.33
2023-02-02T04:26:59.589Z,15.88
2023-02-02T04:28:02.100Z,19.67
2023-02-02T04:29:05.620Z,14.23
2023-02-02T04:30:09.129Z,14.00
2023-02-02T04:31:19.083Z,14.27
2023-02-02T04:32:21.603Z,22.15
2023-02-02T04:33:25.769Z,15.93
2023-02-02T04:34:28.340Z,18.27
2023-02-02T04:35:33.205Z,15.07
2023-02-02T04:36:43.055Z,16.60
2023-02-02T04:37:45.598Z,18.77
2023-02-02T04:38:50.991Z,14.55
2023-02-02T04:39:55.389Z,21.05
2023-02-02T04:40:58.801Z,12.77
2023-02-02T04:42:08.076Z,20.15
2023-02-02T04:43:11.594Z,19.48
2023-02-02T04:44:15.269Z,16.58
2023-02-02T04:45:19.011Z,12.25
2023-02-02T04:46:21.544Z,22.52
2023-02-02T04:47:31.077Z,15.00
2023-02-02T04:48:40.091Z,13.85
2023-02-02T04:49:43.507Z,15.88
2023-02-02T04:50:47.323Z,13.25
2023-02-02T04:51:51.487Z,18.23
2023-02-02T04:53:00.133Z,13.90
2023-02-02T04:54:03.550Z,11.82
2023-02-02T04:55:06.312Z,11.25
2023-02-02T04:56:10.246Z,11.82
2023-02-02T04:57:12.790Z,16.35
2023-02-02T04:58:23.103Z,11.07
2023-02-02T04:59:26.648Z,14.90
2023-02-02T05:00:29.238Z,10.95
2023-02-02T05:01:32.790Z,9.30
2023-02-02T05:02:36.533Z,13.93
2023-02-02T05:03:47.104Z,13.23
2023-02-02T05:04:49.859Z,9.95
2023-02-02T05:06:09.168Z,11.80
2023-02-02T05:07:11.688Z,12.10
2023-02-02T05:08:15.217Z,10.20
2023-02-02T05:09:17.755Z,8.60
2023-02-02T05:10:28.125Z,6.50
2023-02-02T05:11:31.999Z,9.27
2023-02-02T05:12:34.585Z,6.82
2023-02-02T05:13:44.244Z,9.55
2023-02-02T05:14:46.767Z,13.50
2023-02-02T05:15:57.111Z,8.80
2023-02-02T05:16:59.646Z,8.98
2023-02-02T05:18:03.166Z,11.27
2023-02-02T05:19:05.692Z,5.35
2023-02-02T05:20:19.065Z,13.35
2023-02-02T05:21:30.118Z,16.48
2023-02-02T05:22:35.235Z,11.88
2023-02-02T05:23:37.767Z,10.73
2023-02-02T05:24:41.180Z,13.07
2023-02-02T05:25:43.680Z,8.02
2023-02-02T05:26:54.214Z,10.65
2023-02-02T05:27:56.740Z,9.48
2023-02-02T05:29:00.164Z,9.30
2023-02-02T05:30:02.739Z,6.80
2023-02-02T05:31:07.991Z,5.82
2023-02-02T05:32:17.087Z,10.57
2023-02-02T05:33:20.816Z,5.68
2023-02-02T05:34:23.774Z,11.93
2023-02-02T05:35:34.091Z,12.40
2023-02-02T05:36:37.971Z,11.95
2023-02-02T05:37:41.492Z,9.48
2023-02-02T05:38:44.039Z,10.57
2023-02-02T05:39:47.609Z,9.55
2023-02-02T05:40:57.105Z,15.00
2023-02-02T05:42:00.600Z,11.45
2023-02-02T05:43:03.160Z,9.98
2023-02-02T05:44:06.855Z,9.35
2023-02-02T05:45:16.082Z,10.57
2023-02-02T05:46:19.640Z,10.95
2023-02-02T05:47:29.084Z,10.48
2023-02-02T05:48:32.554Z,9.13
2023-02-02T05:49:35.071Z,11.02
2023-02-02T05:50:45.094Z,11.15
2023-02-02T05:51:50.249Z,10.00
2023-02-02T05:53:00.122Z,7.80
2023-02-02T05:54:03.567Z,8.55
2023-02-02T05:55:07.236Z,14.93
2023-02-02T05:56:09.809Z,5.82
2023-02-02T05:57:20.084Z,10.30
2023-02-02T05:58:22.636Z,8.85
2023-02-02T05:59:26.083Z,9.27
2023-02-02T06:00:28.569Z,11.77
2023-02-02T06:01:32.028Z,4.45
2023-02-02T06:02:41.154Z,10.18
2023-02-02T06:03:44.784Z,8.68
2023-02-02T06:04:48.323Z,7.22
2023-02-02T06:05:50.875Z,6.45
2023-02-02T06:06:55.608Z,10.57
2023-02-02T06:08:05.131Z,5.28
2023-02-02T06:09:08.905Z,3.83
2023-02-02T06:10:11.861Z,3.13
2023-02-02T06:11:16.613Z,8.82
2023-02-02T06:12:20.040Z,4.20
2023-02-02T06:13:36.094Z,4.63
2023-02-02T06:14:46.238Z,2.88
2023-02-02T06:15:48.799Z,1.70
2023-02-02T06:16:59.098Z,1.25
2023-02-02T06:18:01.791Z,2.80
2023-02-02T06:19:05.332Z,2.47
2023-02-02T06:20:08.094Z,3.05
2023-02-02T06:21:11.931Z,1.70
2023-02-02T06:22:22.104Z,3.70
2023-02-02T06:23:32.102Z,1.30
2023-02-02T06:24:41.090Z,1.10
2023-02-02T06:25:44.557Z,1.52
2023-02-02T06:26:53.090Z,1.10
2023-02-02T06:27:57.423Z,1.10
2023-02-02T06:28:59.933Z,1.30
2023-02-02T06:30:10.117Z,2.13
2023-02-02T06:31:13.473Z,1.42
2023-02-02T06:32:17.296Z,1.63
2023-02-02T06:33:19.749Z,0.77
2023-02-02T06:34:29.268Z,0.43
2023-02-02T06:35:38.087Z,0.40
2023-02-02T06:36:48.095Z,1.30
2023-02-02T06:37:51.996Z,1.38
2023-02-02T06:38:56.500Z,1.25
2023-02-02T06:40:05.111Z,0.80
2023-02-02T06:41:08.627Z,2.53
2023-02-02T06:42:20.719Z,1.50
2023-02-02T06:43:25.502Z,0.60
2023-02-02T06:44:28.071Z,1.25
2023-02-02T06:45:39.125Z,0.80
2023-02-02T06:46:41.757Z,1.85
2023-02-02T06:47:52.105Z,1.10
2023-02-02T06:48:54.629Z,1.60
2023-02-02T06:49:58.126Z,1.20
2023-02-02T06:51:01.037Z,2.10
2023-02-02T06:52:11.149Z,1.67
2023-02-02T06:53:15.973Z,3.75
2023-02-02T06:54:19.513Z,2.10
2023-02-02T06:55:22.407Z,2.00
2023-02-02T06:56:25.933Z,3.72
2023-02-02T06:57:35.145Z,5.03
2023-02-02T06:58:38.638Z,2.63
2023-02-02T06:59:41.735Z,3.80
2023-02-02T07:00:45.158Z,4.47
2023-02-02T07:01:50.741Z,4.38
2023-02-02T07:03:01.191Z,5.38
2023-02-02T07:04:11.102Z,3.22
2023-02-02T07:05:14.609Z,3.00
2023-02-02T07:06:17.950Z,3.63
2023-02-02T07:07:21.371Z,4.07
2023-02-02T07:08:25.201Z,2.05
2023-02-02T07:09:35.134Z,6.18
2023-02-02T07:11:12.481Z,2.58
2023-02-02T07:12:02.423Z,5.32
2023-02-02T07:13:25.066Z,5.93
2023-02-02T07:14:28.595Z,2.08
2023-02-02T07:15:37.155Z,6.50
2023-02-02T07:16:40.662Z,3.70
2023-02-02T07:17:43.134Z,4.18
2023-02-02T07:18:56.105Z,7.68
2023-02-02T07:19:58.684Z,7.35
2023-02-02T07:21:09.144Z,4.30
2023-02-02T07:22:12.626Z,7.63
2023-02-02T07:23:15.172Z,6.47
2023-02-02T07:24:26.087Z,5.38
2023-02-02T07:25:28.603Z,7.13
2023-02-02T07:26:32.140Z,5.05
2023-02-02T07:27:34.804Z,7.65
2023-02-02T07:28:38.582Z,6.07
2023-02-02T07:29:47.078Z,5.80
2023-02-02T07:30:50.598Z,6.43
2023-02-02T07:31:55.276Z,6.10
2023-02-02T07:32:57.837Z,6.30
2023-02-02T07:34:01.329Z,6.55
2023-02-02T07:35:10.116Z,8.25
2023-02-02T07:36:21.116Z,6.15
2023-02-02T07:37:23.591Z,4.50
2023-02-02T07:38:27.012Z,4.90
2023-02-02T07:39:38.089Z,6.78
2023-02-02T07:40:41.528Z,6.53
2023-02-02T07:41:44.044Z,3.53
2023-02-02T07:42:48.503Z,6.97
2023-02-02T07:43:52.647Z,6.95
2023-02-02T07:45:35.779Z,8.18
2023-02-02T07:46:32.217Z,7.60
2023-02-02T07:47:35.764Z,7.88
2023-02-02T07:48:38.355Z,6.30
2023-02-02T07:49:41.859Z,6.65
2023-02-02T07:50:45.313Z,9.70
2023-02-02T07:51:56.135Z,7.40
2023-02-02T07:53:00.650Z,8.85
2023-02-02T07:54:04.135Z,5.50
2023-02-02T07:55:14.692Z,7.65
2023-02-02T07:56:19.294Z,9.48
2023-02-02T07:57:28.103Z,5.47
2023-02-02T07:58:38.110Z,7.20
2023-02-02T07:59:40.632Z,6.32
2023-02-02T08:00:44.063Z,9.63
2023-02-02T08:01:47.800Z,5.85
2023-02-02T08:02:51.280Z,5.50
2023-02-02T08:04:01.179Z,7.22
2023-02-02T08:05:06.474Z,7.18
2023-02-02T08:06:10.394Z,6.45
2023-02-02T08:07:15.085Z,6.50
2023-02-02T08:08:18.673Z,8.00
2023-02-02T08:09:29.162Z,10.93
2023-02-02T08:10:33.986Z,8.93
2023-02-02T08:11:36.998Z,7.93
2023-02-02T08:12:40.448Z,7.35
2023-02-02T08:13:51.405Z,7.25
2023-02-02T08:15:08.300Z,12.52
2023-02-02T08:16:12.621Z,6.65
2023-02-02T08:17:16.245Z,5.80
2023-02-02T08:18:18.742Z,9.15
2023-02-02T08:19:22.307Z,8.02
2023-02-02T08:20:31.140Z,6.03
2023-02-02T08:21:41.095Z,7.18
2023-02-02T08:22:44.622Z,6.60
2023-02-02T08:23:48.135Z,4.65
2023-02-02T08:24:51.550Z,5.95
2023-02-02T08:25:56.733Z,4.47
2023-02-02T08:27:07.104Z,3.42
2023-02-02T08:28:10.588Z,9.10
2023-02-02T08:29:17.226Z,7.00
2023-02-02T08:30:20.851Z,4.97
2023-02-02T08:31:25.509Z,5.43
2023-02-02T08:32:34.132Z,4.03
2023-02-02T08:33:38.699Z,4.63
2023-02-02T08:34:42.223Z,5.30
2023-02-02T08:35:47.291Z,5.05
2023-02-02T08:36:50.741Z,7.95
2023-02-02T08:38:00.125Z,2.75
2023-02-02T08:39:03.772Z,4.35
2023-02-02T08:40:06.801Z,2.53
2023-02-02T08:41:12.687Z,2.20
2023-02-02T08:42:23.120Z,2.72
2023-02-02T08:43:25.637Z,3.45
2023-02-02T08:44:44.921Z,4.90
2023-02-02T08:46:13.489Z,2.45
2023-02-02T08:47:23.109Z,3.80
2023-02-02T08:48:26.016Z,2.42
2023-02-02T08:49:36.120Z,1.60
2023-02-02T08:50:39.597Z,3.53
2023-02-02T08:51:43.244Z,2.38
2023-02-02T08:52:46.715Z,1.90
2023-02-02T08:53:50.235Z,3.88
2023-02-02T08:54:59.275Z,3.88
2023-02-02T08:56:04.074Z,3.00
2023-02-02T08:57:09.042Z,4.85
2023-02-02T08:58:11.736Z,4.53
2023-02-02T08:59:22.100Z,5.53
2023-02-02T09:00:26.109Z,4.22
2023-02-02T09:01:29.779Z,6.35
2023-02-02T09:02:33.385Z,7.47
2023-02-02T09:03:40.313Z,5.07
2023-02-02T09:04:52.241Z,4.88
2023-02-02T09:05:56.306Z,3.28
2023-02-02T09:07:06.199Z,2.92
2023-02-02T09:08:09.700Z,3.53
2023-02-02T09:09:14.918Z,3.53
2023-02-02T09:10:24.087Z,3.65
2023-02-02T09:11:27.615Z,5.75
2023-02-02T09:12:32.465Z,3.47
2023-02-02T09:13:42.311Z,4.05
2023-02-02T09:14:59.203Z,3.47
2023-02-02T09:16:10.250Z,3.63
2023-02-02T09:17:20.062Z,3.25
2023-02-02T09:18:23.480Z,3.72
2023-02-02T09:19:26.908Z,5.55
2023-02-02T09:20:30.606Z,1.83
2023-02-02T09:21:37.373Z,4.50
2023-02-02T09:22:47.092Z,2.33
2023-02-02T09:23:51.288Z,2.60
2023-02-02T09:24:54.758Z,6.70
2023-02-02T09:25:58.392Z,2.90
2023-02-02T09:27:08.097Z,3.05
2023-02-02T09:28:12.868Z,3.35
2023-02-02T09:29:17.870Z,3.65
2023-02-02T09:30:21.378Z,3.75
2023-02-02T09:31:25.239Z,2.53
2023-02-02T09:32:35.199Z,4.38
2023-02-02T09:33:38.837Z,5.50
2023-02-02T09:34:42.306Z,3.75
2023-02-02T09:35:44.840Z,2.47
2023-02-02T09:36:48.549Z,3.15
2023-02-02T09:37:57.121Z,2.85
2023-02-02T09:39:00.795Z,3.03
2023-02-02T09:40:03.445Z,3.63
2023-02-02T09:41:24.836Z,3.63
2023-02-02T09:42:41.117Z,3.38
2023-02-02T09:43:50.162Z,4.13
2023-02-02T09:45:04.301Z,3.63
2023-02-02T09:46:15.597Z,4.65
2023-02-02T09:47:28.144Z,4.38
2023-02-02T09:48:34.768Z,2.88
2023-02-02T09:49:40.469Z,3.63
2023-02-02T09:50:49.892Z,6.10
2023-02-02T09:51:56.961Z,6.35
2023-02-02T09:53:08.163Z,4.25
2023-02-02T09:54:14.524Z,4.97
2023-02-02T09:55:20.999Z,3.85
2023-02-02T09:56:26.239Z,4.40
2023-02-02T09:57:33.288Z,5.30
2023-02-02T09:58:45.117Z,3.40
2023-02-02T09:59:51.173Z,2.08
2023-02-02T10:00:57.991Z,2.13
2023-02-02T10:02:04.186Z,4.32
2023-02-02T10:03:16.117Z,2.80
2023-02-02T10:04:21.185Z,3.70
2023-02-02T10:05:34.116Z,6.00
2023-02-02T10:06:38.851Z,4.85
2023-02-02T10:07:50.114Z,2.92
2023-02-02T10:08:55.881Z,2.85
2023-02-02T10:10:01.317Z,1.95
2023-02-02T10:11:17.133Z,1.65
2023-02-02T10:12:26.961Z,4.60
2023-02-02T10:13:43.613Z,3.17
2023-02-02T10:15:05.199Z,2.45
2023-02-02T10:16:12.583Z,3.30
2023-02-02T10:17:25.709Z,4.60
2023-02-02T10:18:31.891Z,2.40
2023-02-02T10:19:42.123Z,5.82
2023-02-02T10:20:47.901Z,2.10
2023-02-02T10:21:56.210Z,1.55
2023-02-02T10:23:08.097Z,1.30
2023-02-02T10:24:24.126Z,2.70
2023-02-02T10:25:36.125Z,0.40
2023-02-02T10:26:40.726Z,0.30
2023-02-02T10:27:47.102Z,1.83
2023-02-02T10:29:10.205Z,0.43
2023-02-02T10:30:18.184Z,0.20
2023-02-02T10:31:26.191Z,1.02
2023-02-02T10:32:31.014Z,0.30
2023-02-02T10:33:37.288Z,0.35
2023-02-02T10:34:51.219Z,0.90
2023-02-02T10:35:59.117Z,0.40
2023-02-02T10:37:08.333Z,0.43
2023-02-02T10:38:18.462Z,2.08
2023-02-02T10:39:30.148Z,2.05
2023-02-02T10:40:47.127Z,0.55
2023-02-02T10:41:53.658Z,0.77
2023-02-02T10:43:25.110Z,1.52
2023-02-02T10:44:39.240Z,1.50
2023-02-02T10:45:45.360Z,0.73
2023-02-02T10:46:51.365Z,1.83
2023-02-02T10:47:54.001Z,2.88
2023-02-02T10:49:02.407Z,1.90
2023-02-02T10:50:23.518Z,2.53
2023-02-02T10:51:29.409Z,0.90
2023-02-02T10:52:34.403Z,3.15
2023-02-02T10:53:37.983Z,3.00
2023-02-02T10:54:58.368Z,1.25
2023-02-02T10:56:12.230Z,1.85
2023-02-02T10:57:18.533Z,2.50
2023-02-02T10:58:26.143Z,2.60
2023-02-02T10:59:31.958Z,1.40
2023-02-02T11:00:46.168Z,1.63
2023-02-02T11:01:51.992Z,4.13
2023-02-02T11:02:56.253Z,2.28
2023-02-02T11:04:19.993Z,1.88
2023-02-02T11:05:42.307Z,1.75
2023-02-02T11:06:57.736Z,1.10
2023-02-02T11:08:01.878Z,2.67
2023-02-02T11:09:05.456Z,3.47
2023-02-02T11:10:08.374Z,1.52
2023-02-02T11:11:13.131Z,2.83
2023-02-02T11:12:27.165Z,5.40
2023-02-02T11:13:38.547Z,3.67
2023-02-02T11:14:50.843Z,1.50
2023-02-02T11:16:14.662Z,4.40
2023-02-02T11:17:24.348Z,0.98
2023-02-02T11:18:35.304Z,1.10
2023-02-02T11:19:39.648Z,1.75
2023-02-02T11:20:42.582Z,1.48
2023-02-02T11:21:47.285Z,0.95
2023-02-02T11:23:01.169Z,2.25
2023-02-02T11:24:11.136Z,1.20
2023-02-02T11:25:28.414Z,0.75
2023-02-02T11:26:42.482Z,0.95
2023-02-02T11:27:53.151Z,0.90
2023-02-02T11:28:59.984Z,2.95
2023-02-02T11:30:20.133Z,1.95
2023-02-02T11:31:37.017Z,1.50
2023-02-02T11:32:41.940Z,1.20
2023-02-02T11:33:44.453Z,1.95
2023-02-02T11:34:54.152Z,0.77
2023-02-02T11:35:58.748Z,0.80
2023-02-02T11:37:02.800Z,2.42
2023-02-02T11:38:10.669Z,2.28
2023-02-02T11:39:23.100Z,0.60
2023-02-02T11:40:32.137Z,2.17
2023-02-02T11:41:35.961Z,3.45
2023-02-02T11:42:38.513Z,2.47
2023-02-02T11:43:51.128Z,0.52
2023-02-02T11:44:56.093Z,1.70
2023-02-02T11:46:07.158Z,0.50
2023-02-02T11:47:18.882Z,2.38
2023-02-02T11:48:24.663Z,3.00
2023-02-02T11:49:27.271Z,1.50
2023-02-02T11:50:31.115Z,0.70
2023-02-02T11:51:40.287Z,1.55
2023-02-02T11:52:47.941Z,2.25
2023-02-02T11:53:59.292Z,1.38
2023-02-02T11:55:03.914Z,2.25
2023-02-02T11:56:15.134Z,4.68
2023-02-02T11:57:19.355Z,5.72
2023-02-02T11:58:28.521Z,1.95
2023-02-02T11:59:32.989Z,3.80
2023-02-02T12:00:36.683Z,1.73
2023-02-02T12:01:47.130Z,1.95
2023-02-02T12:02:50.640Z,0.73
2023-02-02T12:04:03.154Z,1.90
2023-02-02T12:05:24.960Z,1.38
2023-02-02T12:06:35.121Z,1.83
2023-02-02T12:07:37.703Z,3.65
2023-02-02T12:08:41.112Z,1.38
2023-02-02T12:09:51.215Z,1.13
2023-02-02T12:11:06.754Z,0.88
2023-02-02T12:12:16.503Z,1.42
2023-02-02T12:13:24.898Z,2.45
2023-02-02T12:14:39.254Z,3.83
2023-02-02T12:15:59.183Z,2.13
2023-02-02T12:17:08.520Z,1.75
2023-02-02T12:18:19.608Z,5.50
2023-02-02T12:19:40.187Z,0.80
2023-02-02T12:20:54.143Z,1.35
2023-02-02T12:22:02.635Z,2.83
2023-02-02T12:23:21.415Z,1.13
2023-02-02T12:24:31.468Z,0.93
2023-02-02T12:25:45.134Z,1.23
2023-02-02T12:26:52.046Z,0.75
2023-02-02T12:27:58.141Z,0.75
2023-02-02T12:29:20.082Z,6.00
2023-02-02T12:30:34.141Z,1.70
2023-02-02T12:31:42.512Z,6.68
2023-02-02T12:32:54.833Z,1.10
2023-02-02T12:34:05.573Z,4.15
2023-02-02T12:35:28.162Z,1.73
2023-02-02T12:36:38.675Z,1.67
2023-02-02T12:38:01.127Z,1.27
2023-02-02T12:39:11.047Z,2.75
2023-02-02T12:40:21.894Z,5.97
2023-02-02T12:41:45.138Z,4.00
2023-02-02T12:43:04.112Z,2.20
2023-02-02T12:44:14.981Z,2.60
2023-02-02T12:45:37.024Z,1.92
2023-02-02T12:46:50.890Z,4.18
2023-02-02T12:48:09.155Z,3.92
2023-02-02T12:49:23.495Z,2.22
2023-02-02T12:50:32.325Z,2.13
2023-02-02T12:51:40.750Z,3.03
2023-02-02T12:52:52.021Z,2.95
2023-02-02T12:54:34.743Z,3.90
2023-02-02T12:55:45.199Z,3.78
2023-02-02T12:56:50.374Z,8.70
2023-02-02T12:57:58.415Z,5.88
2023-02-02T12:59:07.995Z,2.70
2023-02-02T13:00:18.818Z,3.38
2023-02-02T13:01:34.149Z,5.03
2023-02-02T13:02:58.273Z,3.47
2023-02-02T13:06:07.119Z,6.10
2023-02-02T13:07:44.106Z,5.53
2023-02-02T13:08:51.984Z,4.93
2023-02-02T13:10:01.364Z,6.25
2023-02-02T13:11:07.158Z,3.30
2023-02-02T13:12:17.114Z,4.97
2023-02-02T13:13:21.595Z,4.70
2023-02-02T13:14:34.273Z,7.15
2023-02-02T13:15:38.674Z,4.75
2023-02-02T13:16:44.374Z,6.75
2023-02-02T13:17:57.136Z,4.20
2023-02-02T13:19:03.173Z,8.30
2023-02-02T13:20:09.015Z,5.50
2023-02-02T13:21:16.851Z,6.35
2023-02-02T13:22:23.871Z,5.10
2023-02-02T13:23:36.095Z,5.40
2023-02-02T13:24:41.713Z,6.20
2023-02-02T13:25:48.555Z,6.30
2023-02-02T13:26:51.356Z,7.60
2023-02-02T13:27:55.308Z,7.38
2023-02-02T13:29:07.127Z,2.78
2023-02-02T13:30:15.707Z,2.58
2023-02-02T13:31:21.500Z,9.57
2023-02-02T13:32:28.007Z,4.78
2023-02-02T13:33:39.159Z,5.07
2023-02-02T13:34:44.537Z,5.90
2023-02-02T13:35:52.340Z,3.55
2023-02-02T13:36:59.466Z,4.10
2023-02-02T13:38:06.168Z,2.72
2023-02-02T13:39:20.158Z,9.52
2023-02-02T13:40:27.265Z,2.47
2023-02-02T13:41:31.583Z,8.65
2023-02-02T13:42:38.481Z,5.20
2023-02-02T13:43:52.071Z,2.45
2023-02-02T13:44:57.446Z,3.83
2023-02-02T13:46:09.065Z,7.90
2023-02-02T13:47:14.494Z,3.10
2023-02-02T13:48:20.353Z,7.30
2023-02-02T13:49:34.109Z,7.40
2023-02-02T13:50:42.324Z,5.07
2023-02-02T13:52:04.515Z,5.57
2023-02-02T13:53:21.138Z,3.78
2023-02-02T13:54:49.241Z,4.88
2023-02-02T13:55:59.767Z,3.00
2023-02-02T13:58:41.234Z,3.20
2023-02-02T13:59:59.222Z,2.38
2023-02-02T14:01:04.725Z,3.17
2023-02-02T14:02:15.431Z,3.22
2023-02-02T14:03:38.806Z,2.67
2023-02-02T14:04:42.318Z,6.13
2023-02-02T14:05:53.139Z,4.32
2023-02-02T14:06:58.264Z,3.17
2023-02-02T14:08:07.188Z,3.75
2023-02-02T14:09:19.263Z,6.72
2023-02-02T14:10:24.516Z,4.30
2023-02-02T14:11:37.124Z,4.68
2023-02-02T14:12:40.985Z,5.57
2023-02-02T14:14:03.566Z,3.25
2023-02-02T14:16:53.588Z,4.18
2023-02-02T14:17:57.333Z,3.03
2023-02-02T14:19:00.745Z,4.68
2023-02-02T14:20:13.163Z,4.45
2023-02-02T14:21:36.583Z,3.13
2023-02-02T14:22:41.675Z,1.60
2023-02-02T14:23:53.226Z,2.88
2023-02-02T14:24:57.250Z,4.32
2023-02-02T14:26:13.302Z,2.50
2023-02-02T14:27:38.259Z,3.65
2023-02-02T14:28:43.599Z,4.75
2023-02-02T14:30:00.316Z,2.67
2023-02-02T14:31:22.665Z,5.07
2023-02-02T14:32:50.118Z,7.07
2023-02-02T14:33:53.925Z,4.38
2023-02-02T14:34:58.141Z,3.70
2023-02-02T14:36:02.231Z,4.75
2023-02-02T14:37:20.640Z,7.22
2023-02-02T14:38:36.129Z,4.95
2023-02-02T14:39:44.685Z,5.22
2023-02-02T14:40:51.262Z,2.65
2023-02-02T14:42:31.163Z,5.40
2023-02-02T14:43:45.561Z,3.85
2023-02-02T14:45:10.248Z,3.92
2023-02-02T14:46:32.038Z,6.00
2023-02-02T14:47:55.225Z,1.55
2023-02-02T14:49:11.599Z,4.93
2023-02-02T14:50:22.169Z,3.70
2023-02-02T14:51:27.018Z,2.78
2023-02-02T14:52:30.575Z,3.22
2023-02-02T14:53:35.532Z,3.08
2023-02-02T14:54:41.929Z,3.63
2023-02-02T14:56:00.170Z,1.58
2023-02-02T14:57:05.605Z,4.63
2023-02-02T14:58:09.373Z,5.88